• Join FlightAware (Why Join?)
  • Login
  • US Flag 
07:37AM EST


 

Airport Tracker/Info


-or-


 

Live Flight TrackerFlight Track Log ✈ JUS327 ✈ 18-Apr-2013 ✈ KDAL - KPHX

Flight Track Log - Related Links

Times and Time Zones

All times are in EDT time to prevent confusion due to time zone crossing. See the JUS327 flight status page for this flight to view local times or setup timezone preferences in your user account.

Time Position Orientation Groundspeed Altitude Reporting Facility
EDT Latitude Longitude Course Direction KTS MPH feet Rate Location/Type
07:01PM 32.8833 -96.9167 320° Northwest 197 227 3,100  Level Dallas / Fort Worth TRACON
07:02PM 32.9167 -96.9500 320° Northwest 201 231 5,300 2,220 Climbing Dallas / Fort Worth TRACON
07:03PM 32.9500 -97.0000 308° West 206 237 7,400 2,220 Climbing Dallas / Fort Worth TRACON
07:04PM 33.0000 -97.0667 312° West 209 241 9,800 1,620 Climbing Dallas / Fort Worth TRACON
07:07PM 33.0817 -97.1853 309° West 199 229 13,000 1,260 Climbing Fort Worth Center
07:08PM 33.0544 -97.2400 239° Southwest 183 211 14,200 960 Climbing Fort Worth Center
07:09PM 33.0192 -97.3242 243° Southwest 228 262 15,400 1,080 Climbing Fort Worth Center
07:10PM 32.9733 -97.4283 242° Southwest 270 311 16,900 1,680 Climbing Fort Worth Center
07:11PM 32.9439 -97.5050 245° Southwest 276 318 18,800 1,620 Climbing Fort Worth Center
07:12PM 32.9106 -97.5942 246° West 276 318 20,200 1,440 Climbing Fort Worth Center
07:13PM 32.8728 -97.6706 240° Southwest 276 318 21,700 1,260 Climbing Fort Worth Center
07:14PM 32.8350 -97.7472 240° Southwest 274 315 22,800 960 Climbing Fort Worth Center
07:15PM 32.8056 -97.8236 245° Southwest 274 315 23,700 900 Climbing Fort Worth Center
07:16PM 32.7761 -97.8928 243° Southwest 286 329 24,600 1,080 Climbing Fort Worth Center
07:17PM 32.7358 -97.9964 245° Southwest 286 329 25,900 1,140 Climbing Fort Worth Center
07:18PM 32.7356 -98.0975 270° West 294 338 26,900 1,020 Climbing Fort Worth Center
07:19PM 32.7494 -98.1989 279° West 312 359 28,000 960 Climbing Fort Worth Center
07:20PM 32.7425 -98.3025 265° West 302 348 28,900 840 Climbing Fort Worth Center
07:21PM 32.7292 -98.3964 260° West 302 348 29,700 780 Climbing Fort Worth Center
07:22PM 32.7203 -98.4778 263° West 290 334 30,500 720 Climbing Fort Worth Center
07:23PM 32.6986 -98.5639 253° West 277 319 31,200 720 Climbing Fort Worth Center
07:24PM 32.6728 -98.6450 249° West 277 319 32,000 300 Climbing Fort Worth Center
07:25PM 32.6656 -98.7361 265° West 277 319 31,900  Descending Fort Worth Center
07:26PM 32.6542 -98.8272 262° West 277 319 32,000  Climbing Fort Worth Center
07:27PM 32.6383 -98.9208 259° West 282 325 31,900 -60 Descending Fort Worth Center
07:28PM 32.6206 -99.0192 258° West 295 339 31,900  Level Fort Worth Center
07:29PM 32.6047 -99.1175 259° West 303 349 32,000  Climbing Fort Worth Center
07:30PM 32.5886 -99.2233 260° West 317 365 31,900 -60 Descending Fort Worth Center
07:31PM 32.5744 -99.3289 261° West 322 371 31,900  Level Fort Worth Center
07:32PM 32.5561 -99.4294 258° West 322 371 31,900  Level Fort Worth Center
07:33PM 32.5378 -99.5303 258° West 322 371 31,900  Level Fort Worth Center
07:34PM 32.5194 -99.6308 258° West 317 365 31,900  Level Fort Worth Center
07:35PM 32.5031 -99.7314 259° West 317 365 31,900  Level Fort Worth Center
07:36PM 32.4842 -99.8344 258° West 317 365 32,000  Climbing Fort Worth Center
07:37PM 32.4694 -99.9497 261° West 317 365 31,900  Descending Fort Worth Center
07:38PM 32.4692 -100.0606 270° West 322 371 32,000  Climbing Fort Worth Center
07:39PM 32.4669 -100.1711 269° West 332 382 31,900 -60 Descending Fort Worth Center
07:40PM 32.4561 -100.2792 263° West 332 382 31,900  Level Fort Worth Center
07:41PM 32.4494 -100.3897 266° West 332 382 31,900  Level Fort Worth Center
07:42PM 32.4467 -100.5028 268° West 332 382 31,900  Level Fort Worth Center
07:43PM 32.4375 -100.6158 265° West 338 389 31,900  Level Fort Worth Center
07:44PM 32.4306 -100.7239 266° West 338 389 31,900  Level Fort Worth Center
07:45PM 32.4233 -100.8342 266° West 343 395 31,900  Level Fort Worth Center
07:46PM 32.4183 -100.9447 267° West 343 395 31,900  Level Fort Worth Center
07:47PM 32.4108 -101.0553 265° West 348 400 31,900  Level Fort Worth Center
07:48PM 32.4036 -101.1633 266° West 348 400 31,900  Level Fort Worth Center
07:49PM 32.3981 -101.2736 267° West 348 400 31,900  Level Fort Worth Center
07:50PM 32.3906 -101.3817 265° West 342 394 31,900  Level Fort Worth Center
07:51PM 32.3828 -101.4919 265° West 342 394 31,900  Level Fort Worth Center
07:52PM 32.3731 -101.5972 264° West 337 388 31,900  Level Fort Worth Center
07:53PM 32.3653 -101.7050 265° West 337 388 31,900  Level Fort Worth Center
07:54PM 32.3594 -101.8131 266° West 332 382 31,900  Level Fort Worth Center
07:55PM 32.3517 -101.9208 265° West 332 382 31,900  Level Fort Worth Center
07:56PM 32.3436 -102.0261 265° West 327 376 31,900  Level Fort Worth Center
07:57PM 32.3353 -102.1364 265° West 327 376 31,900  Level Fort Worth Center
07:58PM 32.3297 -102.2244 266° West 327 376 31,900  Level Fort Worth Center
07:59PM 32.3186 -102.3517 264° West 332 382 31,900  Level Fort Worth Center
08:00PM 32.3122 -102.4619 266° West 332 382 32,000  Climbing Fort Worth Center
08:01PM 32.3014 -102.5719 263° West 332 382 31,900 -60 Descending Fort Worth Center
08:02PM 32.2950 -102.6797 266° West 327 376 31,900  Level Fort Worth Center
08:03PM 32.2861 -102.7872 264° West 327 376 31,900  Level Fort Worth Center
08:04PM 32.2772 -102.8972 265° West 334 384 31,900  Level Fort Worth Center
08:04PM 32.2722 -102.9389 262° West 333 383 31,900  Level Albuquerque Center
08:05PM 32.2628 -103.0456 264° West 329 379 31,900  Level Albuquerque Center
08:07PM 32.2550 -103.1553 265° West 332 382 31,900  Level Albuquerque Center
08:08PM 32.2458 -103.2625 264° West 331 381 31,900  Level Albuquerque Center
08:09PM 32.2358 -103.3694 264° West 330 380 31,900  Level Albuquerque Center
08:10PM 32.2219 -103.4969 263° West 327 376 31,900  Level Albuquerque Center
08:11PM 32.2133 -103.6061 265° West 333 383 31,900  Level Albuquerque Center
08:12PM 32.2044 -103.7142 264° West 333 383 31,900  Level Albuquerque Center
08:13PM 32.1950 -103.8242 264° West 338 389 31,900  Level Albuquerque Center
08:14PM 32.1861 -103.9328 265° West 335 386 31,900  Level Albuquerque Center
08:15PM 32.1769 -104.0431 264° West 337 388 31,900  Level Albuquerque Center
08:16PM 32.1656 -104.1564 263° West 338 389 31,900  Level Albuquerque Center
08:17PM 32.1528 -104.2886 264° West 339 390 31,900  Level Albuquerque Center
08:18PM 32.1442 -104.4000 265° West 341 392 31,900  Level Albuquerque Center
08:19PM 32.1511 -104.5081 274° West 335 386 31,900  Level Albuquerque Center
08:20PM 32.1589 -104.6175 275° West 335 386 31,900  Level Albuquerque Center
08:21PM 32.1594 -104.7253 270° West 332 382 31,900  Level Albuquerque Center
08:22PM 32.1642 -104.8361 273° West 335 386 31,900  Level Albuquerque Center
08:23PM 32.1700 -104.9461 274° West 338 389 31,900  Level Albuquerque Center
08:24PM 32.1753 -105.0781 273° West 339 390 31,900  Level Albuquerque Center
08:25PM 32.1792 -105.1872 272° West 336 387 31,900  Level Albuquerque Center
08:26PM 32.1822 -105.2978 272° West 338 389 31,900  Level Albuquerque Center
08:27PM 32.1869 -105.4131 273° West 349 402 31,900  Level Albuquerque Center
08:28PM 32.1889 -105.5233 271° West 340 391 31,900  Level Albuquerque Center
08:29PM 32.1950 -105.6358 274° West 344 396 31,900  Level Albuquerque Center
08:30PM 32.2003 -105.7711 273° West 345 397 31,900  Level Albuquerque Center
08:31PM 32.2025 -105.8856 271° West 349 402 31,900  Level Albuquerque Center
08:32PM 32.2089 -106.0014 274° West 354 407 31,900  Level Albuquerque Center
08:33PM 32.2086 -106.1147 270° West 349 402 31,900  Level Albuquerque Center
08:34PM 32.2125 -106.2300 272° West 350 403 31,900  Level Albuquerque Center
08:35PM 32.2194 -106.3450 274° West 353 406 31,900  Level Albuquerque Center
08:36PM 32.2219 -106.4825 271° West 350 403 31,900  Level Albuquerque Center
08:37PM 32.2236 -106.5972 271° West 350 403 31,900  Level Albuquerque Center
08:38PM 32.2297 -106.7125 274° West 353 406 31,900  Level Albuquerque Center
08:39PM 32.2328 -106.8272 272° West 350 403 31,900  Level Albuquerque Center
08:41PM 32.2350 -106.9544 271° West 350 403 31,900  Level Albuquerque Center
08:42PM 32.2389 -107.0700 272° West 352 405 32,000  Climbing Albuquerque Center
08:43PM 32.2411 -107.1939 271° West 355 409 31,900 -60 Descending Albuquerque Center
08:44PM 32.2406 -107.3139 270° West 364 419 31,900  Level Albuquerque Center
08:45PM 32.2436 -107.4297 272° West 360 414 31,900  Level Albuquerque Center
08:46PM 32.2486 -107.5556 273° West 354 407 31,900  Level Albuquerque Center
08:47PM 32.2494 -107.6739 271° West 358 412 31,900  Level Albuquerque Center
08:48PM 32.2531 -107.7922 272° West 360 414 31,900  Level Albuquerque Center
08:49PM 32.2539 -107.9103 271° West 359 413 31,900  Level Albuquerque Center
08:50PM 32.2550 -108.0289 271° West 361 415 31,900  Level Albuquerque Center
08:51PM 32.2567 -108.1478 271° West 363 418 31,900  Level Albuquerque Center
08:52PM 32.2594 -108.2686 272° West 366 421 31,900  Level Albuquerque Center
08:53PM 32.2619 -108.4139 271° West 368 423 31,900  Level Albuquerque Center
08:54PM 32.2625 -108.5175 270° West 369 425 31,900  Level Albuquerque Center
08:55PM 32.2644 -108.6650 271° West 375 432 31,900  Level Albuquerque Center
08:56PM 32.2656 -108.7872 271° West 375 432 31,900  Level Albuquerque Center
08:57PM 32.2675 -108.9097 271° West 374 430 31,900  Level Albuquerque Center
08:58PM 32.2669 -109.0336 270° West 378 435 31,900  Level Albuquerque Center
08:59PM 32.2689 -109.1578 271° West 379 436 31,900  Level Albuquerque Center
09:00PM 32.2694 -109.2817 270° West 379 436 31,900  Level Albuquerque Center
09:01PM 32.2903 -109.4275 280° West 378 435 31,900  Level Albuquerque Center
09:02PM 32.3397 -109.5386 298° West 381 438 31,900 -360 Level Albuquerque Center
09:03PM 32.3750 -109.6553 290° West 381 438 31,200 -720 Descending Albuquerque Center
09:04PM 32.3986 -109.7775 283° West 382 440 30,500 -720 Descending Albuquerque Center
09:05PM 32.4264 -109.9011 285° West 387 445 29,800 -840 Descending Albuquerque Center
09:06PM 32.4553 -110.0211 286° West 385 443 28,800 -1,500 Descending Albuquerque Center
09:07PM 32.4894 -110.1625 286° West 375 432 26,800 -1,980 Descending Albuquerque Center
09:08PM 32.5150 -110.2728 285° West 355 409 24,800 -1,260 Descending Albuquerque Center
09:09PM 32.5389 -110.3889 284° West 344 396 24,300 -1,080 Descending Albuquerque Center
09:10PM 32.5750 -110.4931 292° West 340 391 22,600 -1,920 Descending Albuquerque Center
09:11PM 32.6317 -110.5761 309° West 327 376 20,400 -2,040 Descending Albuquerque Center
09:12PM 32.6736 -110.6747 297° West 333 383 18,400 -1,800 Descending Albuquerque Center
09:13PM 32.7158 -110.7678 298° West 327 376 16,800 -1,440 Descending Albuquerque Center
09:14PM 32.7583 -110.8581 299° West 317 365 15,500 -1,080 Descending Albuquerque Center
09:16PM 32.7992 -110.9503 298° West 314 361 14,600 -1,020 Descending Albuquerque Center
09:17PM 32.8511 -111.0644 298° West 324 373 13,500 -960 Descending Albuquerque Center
09:18PM 32.8969 -111.1589 300° West 328 377 12,700 -720 Descending Albuquerque Center
09:19PM 32.9364 -111.2444 299° West 297 342 12,100 -360 Descending Albuquerque Center
09:20PM 32.9719 -111.3281 297° West 283 326 12,000 -300 Descending Albuquerque Center
09:21PM 33.0072 -111.4122 297° West 284 327 11,600 -600 Descending Albuquerque Center
09:22PM 33.0458 -111.4939 299° West 283 326 10,800 -780 Descending Albuquerque Center
09:23PM 33.0739 -111.5853 290° West 291 335 10,100 -1,320 Descending Albuquerque Center
09:24PM 33.1306 -111.6056 343° North 231 266 8,200 -1,080 Descending Albuquerque Center
09:25PM 33.2061 -111.6128 355° North 225 259 8,000 -120 Descending Albuquerque Center
09:26PM 33.2619 -111.6083 North 204 235 8,000 -180 Level Albuquerque Center
09:27PM 33.3164 -111.6019 North 199 229 7,700 -840 Descending Albuquerque Center
09:28PM 33.3614 -111.6500 318° Northwest 217 250 6,300 -1,320 Descending Albuquerque Center
09:29PM 33.3825 -111.7114 292° West 201 231 5,000 -720 Descending Albuquerque Center
09:30PM 33.4064 -111.7708 296° West 198 228 4,900 -660 Descending Albuquerque Center
09:31PM 33.4269 -111.8331 292° West 201 231 3,700 -1,080 Descending Albuquerque Center
09:32PM 33.4306 -111.8903 274° West 172 198 2,800 -840 Descending Albuquerque Center
09:33PM 33.4311 -111.9453 271° West 140 161 2,000 -780 Descending Albuquerque Center
09:34PM 33.4286 -111.9892 266° West 133 153 1,300 -720 Descending Albuquerque Center
09:36PM 33.4333 -112.0000 320° Northwest  Level FlightAware Approximate